sensor_id;sensor_type;location;lat;lon;timestamp;P1;durP1;ratioP1;P2;durP2;ratioP2
74791;SDS011;63319;46.046;17.802;2023-04-03T00:00:56;3.20;;;1.50;;
74791;SDS011;63319;46.046;17.802;2023-04-03T00:03:59;2.85;;;1.38;;
74791;SDS011;63319;46.046;17.802;2023-04-03T00:07:03;2.90;;;1.60;;
74791;SDS011;63319;46.046;17.802;2023-04-03T00:10:06;2.97;;;1.63;;
74791;SDS011;63319;46.046;17.802;2023-04-03T00:13:09;3.42;;;1.63;;
74791;SDS011;63319;46.046;17.802;2023-04-03T00:16:12;3.00;;;1.70;;
74791;SDS011;63319;46.046;17.802;2023-04-03T00:19:15;2.63;;;1.35;;
74791;SDS011;63319;46.046;17.802;2023-04-03T00:22:18;2.78;;;1.60;;
74791;SDS011;63319;46.046;17.802;2023-04-03T00:25:21;2.87;;;1.63;;
74791;SDS011;63319;46.046;17.802;2023-04-03T00:28:24;3.22;;;1.60;;
74791;SDS011;63319;46.046;17.802;2023-04-03T00:31:27;3.22;;;1.75;;
74791;SDS011;63319;46.046;17.802;2023-04-03T00:34:30;2.45;;;1.45;;
74791;SDS011;63319;46.046;17.802;2023-04-03T00:37:33;3.05;;;1.60;;
74791;SDS011;63319;46.046;17.802;2023-04-03T00:40:38;2.80;;;1.50;;
74791;SDS011;63319;46.046;17.802;2023-04-03T00:43:44;2.88;;;1.50;;
74791;SDS011;63319;46.046;17.802;2023-04-03T00:46:47;3.00;;;1.60;;
74791;SDS011;63319;46.046;17.802;2023-04-03T00:49:50;3.00;;;1.50;;
74791;SDS011;63319;46.046;17.802;2023-04-03T00:52:54;2.28;;;1.40;;
74791;SDS011;63319;46.046;17.802;2023-04-03T00:55:58;2.97;;;1.73;;
74791;SDS011;63319;46.046;17.802;2023-04-03T01:02:08;3.28;;;1.67;;
74791;SDS011;63319;46.046;17.802;2023-04-03T01:05:11;2.25;;;1.30;;
74791;SDS011;63319;46.046;17.802;2023-04-03T01:08:15;2.65;;;1.42;;
74791;SDS011;63319;46.046;17.802;2023-04-03T01:11:18;3.27;;;1.57;;
74791;SDS011;63319;46.046;17.802;2023-04-03T01:14:21;3.30;;;1.92;;
74791;SDS011;63319;46.046;17.802;2023-04-03T01:17:32;3.10;;;1.83;;
74791;SDS011;63319;46.046;17.802;2023-04-03T01:20:50;3.05;;;1.33;;
74791;SDS011;63319;46.046;17.802;2023-04-03T01:24:21;2.70;;;1.50;;
74791;SDS011;63319;46.046;17.802;2023-04-03T01:27:36;3.13;;;1.70;;
74791;SDS011;63319;46.046;17.802;2023-04-03T01:31:00;2.60;;;1.48;;
74791;SDS011;63319;46.046;17.802;2023-04-03T01:34:07;2.45;;;1.30;;
74791;SDS011;63319;46.046;17.802;2023-04-03T01:37:10;3.45;;;1.77;;
74791;SDS011;63319;46.046;17.802;2023-04-03T01:40:13;2.40;;;1.40;;
74791;SDS011;63319;46.046;17.802;2023-04-03T01:43:15;3.00;;;1.70;;
74791;SDS011;63319;46.046;17.802;2023-04-03T01:46:19;3.05;;;1.30;;
74791;SDS011;63319;46.046;17.802;2023-04-03T01:49:22;3.30;;;1.60;;
74791;SDS011;63319;46.046;17.802;2023-04-03T01:52:25;3.22;;;1.58;;
74791;SDS011;63319;46.046;17.802;2023-04-03T01:55:28;2.72;;;1.42;;
74791;SDS011;63319;46.046;17.802;2023-04-03T01:58:31;2.70;;;1.40;;
74791;SDS011;63319;46.046;17.802;2023-04-03T02:01:34;3.00;;;1.58;;
74791;SDS011;63319;46.046;17.802;2023-04-03T02:04:37;2.50;;;1.60;;
74791;SDS011;63319;46.046;17.802;2023-04-03T02:07:40;2.33;;;1.42;;
74791;SDS011;63319;46.046;17.802;2023-04-03T02:10:43;2.78;;;1.60;;
74791;SDS011;63319;46.046;17.802;2023-04-03T02:13:47;2.53;;;1.20;;
74791;SDS011;63319;46.046;17.802;2023-04-03T02:16:50;2.10;;;1.27;;
74791;SDS011;63319;46.046;17.802;2023-04-03T02:19:53;3.03;;;1.48;;
74791;SDS011;63319;46.046;17.802;2023-04-03T02:22:56;2.67;;;1.20;;
74791;SDS011;63319;46.046;17.802;2023-04-03T02:26:06;3.30;;;1.50;;
74791;SDS011;63319;46.046;17.802;2023-04-03T02:29:11;2.63;;;1.40;;
74791;SDS011;63319;46.046;17.802;2023-04-03T02:32:17;2.72;;;1.05;;
74791;SDS011;63319;46.046;17.802;2023-04-03T02:35:21;3.17;;;1.50;;
74791;SDS011;63319;46.046;17.802;2023-04-03T02:38:24;2.67;;;1.30;;
74791;SDS011;63319;46.046;17.802;2023-04-03T02:41:28;2.85;;;1.58;;
74791;SDS011;63319;46.046;17.802;2023-04-03T02:44:39;2.87;;;1.40;;
74791;SDS011;63319;46.046;17.802;2023-04-03T02:47:44;2.58;;;1.38;;
74791;SDS011;63319;46.046;17.802;2023-04-03T02:50:46;3.30;;;1.67;;
74791;SDS011;63319;46.046;17.802;2023-04-03T02:53:49;2.30;;;1.38;;
74791;SDS011;63319;46.046;17.802;2023-04-03T02:56:58;2.70;;;1.55;;
74791;SDS011;63319;46.046;17.802;2023-04-03T03:00:01;2.10;;;1.20;;
74791;SDS011;63319;46.046;17.802;2023-04-03T03:03:04;2.60;;;1.58;;
74791;SDS011;63319;46.046;17.802;2023-04-03T03:06:09;3.60;;;1.60;;
74791;SDS011;63319;46.046;17.802;2023-04-03T03:09:14;3.92;;;1.67;;
74791;SDS011;63319;46.046;17.802;2023-04-03T03:12:17;2.95;;;1.48;;
74791;SDS011;63319;46.046;17.802;2023-04-03T03:15:24;2.73;;;1.53;;
74791;SDS011;63319;46.046;17.802;2023-04-03T03:18:27;2.85;;;1.48;;
74791;SDS011;63319;46.046;17.802;2023-04-03T03:21:30;2.85;;;1.50;;
74791;SDS011;63319;46.046;17.802;2023-04-03T03:24:33;3.00;;;1.70;;
74791;SDS011;63319;46.046;17.802;2023-04-03T03:27:36;3.25;;;1.60;;
74791;SDS011;63319;46.046;17.802;2023-04-03T03:30:39;3.27;;;1.60;;
74791;SDS011;63319;46.046;17.802;2023-04-03T03:33:42;2.75;;;1.50;;
74791;SDS011;63319;46.046;17.802;2023-04-03T03:36:45;3.00;;;1.70;;
74791;SDS011;63319;46.046;17.802;2023-04-03T03:39:48;2.92;;;1.25;;
74791;SDS011;63319;46.046;17.802;2023-04-03T03:42:51;1.98;;;1.13;;
74791;SDS011;63319;46.046;17.802;2023-04-03T03:45:54;2.57;;;1.27;;
74791;SDS011;63319;46.046;17.802;2023-04-03T03:48:59;2.60;;;1.30;;
74791;SDS011;63319;46.046;17.802;2023-04-03T03:52:11;2.90;;;1.45;;
74791;SDS011;63319;46.046;17.802;2023-04-03T03:55:13;2.50;;;1.38;;
74791;SDS011;63319;46.046;17.802;2023-04-03T03:58:17;3.88;;;1.60;;
74791;SDS011;63319;46.046;17.802;2023-04-03T04:01:20;2.37;;;1.33;;
74791;SDS011;63319;46.046;17.802;2023-04-03T04:04:23;2.28;;;1.20;;
74791;SDS011;63319;46.046;17.802;2023-04-03T04:07:26;2.80;;;1.40;;
74791;SDS011;63319;46.046;17.802;2023-04-03T04:10:33;2.88;;;1.60;;
74791;SDS011;63319;46.046;17.802;2023-04-03T04:13:37;2.58;;;1.45;;
74791;SDS011;63319;46.046;17.802;2023-04-03T04:16:40;2.47;;;1.33;;
74791;SDS011;63319;46.046;17.802;2023-04-03T04:19:48;2.42;;;1.40;;
74791;SDS011;63319;46.046;17.802;2023-04-03T04:22:51;2.72;;;1.48;;
74791;SDS011;63319;46.046;17.802;2023-04-03T04:25:56;2.63;;;1.20;;
74791;SDS011;63319;46.046;17.802;2023-04-03T04:28:58;3.00;;;1.48;;
74791;SDS011;63319;46.046;17.802;2023-04-03T04:32:03;2.80;;;1.50;;
74791;SDS011;63319;46.046;17.802;2023-04-03T04:35:06;3.13;;;1.40;;
74791;SDS011;63319;46.046;17.802;2023-04-03T04:38:14;2.75;;;1.45;;
74791;SDS011;63319;46.046;17.802;2023-04-03T04:41:17;2.75;;;1.50;;
74791;SDS011;63319;46.046;17.802;2023-04-03T04:44:21;2.60;;;1.45;;
74791;SDS011;63319;46.046;17.802;2023-04-03T04:47:23;2.80;;;1.30;;
74791;SDS011;63319;46.046;17.802;2023-04-03T04:50:27;2.03;;;1.23;;
74791;SDS011;63319;46.046;17.802;2023-04-03T04:53:30;2.83;;;1.50;;
74791;SDS011;63319;46.046;17.802;2023-04-03T04:56:33;2.72;;;1.40;;
74791;SDS011;63319;46.046;17.802;2023-04-03T04:59:36;2.95;;;1.65;;
74791;SDS011;63319;46.046;17.802;2023-04-03T05:02:41;4.20;;;1.33;;
74791;SDS011;63319;46.046;17.802;2023-04-03T05:05:44;1.98;;;1.25;;
74791;SDS011;63319;46.046;17.802;2023-04-03T05:08:48;2.70;;;1.15;;
74791;SDS011;63319;46.046;17.802;2023-04-03T05:11:51;2.72;;;1.27;;
74791;SDS011;63319;46.046;17.802;2023-04-03T05:14:58;2.70;;;1.38;;
74791;SDS011;63319;46.046;17.802;2023-04-03T05:18:02;3.13;;;1.47;;
74791;SDS011;63319;46.046;17.802;2023-04-03T05:21:05;3.08;;;1.55;;
74791;SDS011;63319;46.046;17.802;2023-04-03T05:24:08;2.55;;;1.48;;
74791;SDS011;63319;46.046;17.802;2023-04-03T05:27:14;2.85;;;1.50;;
74791;SDS011;63319;46.046;17.802;2023-04-03T05:30:20;3.22;;;1.98;;
74791;SDS011;63319;46.046;17.802;2023-04-03T05:33:24;2.60;;;1.40;;
74791;SDS011;63319;46.046;17.802;2023-04-03T05:36:31;2.25;;;0.95;;
74791;SDS011;63319;46.046;17.802;2023-04-03T05:39:39;3.83;;;1.15;;
74791;SDS011;63319;46.046;17.802;2023-04-03T05:42:44;2.20;;;1.23;;
74791;SDS011;63319;46.046;17.802;2023-04-03T05:45:48;2.55;;;1.40;;
74791;SDS011;63319;46.046;17.802;2023-04-03T05:48:51;2.80;;;1.30;;
74791;SDS011;63319;46.046;17.802;2023-04-03T05:51:57;2.40;;;1.20;;
74791;SDS011;63319;46.046;17.802;2023-04-03T05:55:03;2.50;;;1.30;;
74791;SDS011;63319;46.046;17.802;2023-04-03T05:58:09;3.22;;;1.38;;
74791;SDS011;63319;46.046;17.802;2023-04-03T06:01:14;2.90;;;1.40;;
74791;SDS011;63319;46.046;17.802;2023-04-03T06:04:19;2.57;;;1.33;;
74791;SDS011;63319;46.046;17.802;2023-04-03T06:07:24;2.13;;;1.17;;
74791;SDS011;63319;46.046;17.802;2023-04-03T06:10:31;3.10;;;1.30;;
74791;SDS011;63319;46.046;17.802;2023-04-03T06:13:34;3.53;;;1.20;;
74791;SDS011;63319;46.046;17.802;2023-04-03T06:16:37;2.88;;;1.33;;
74791;SDS011;63319;46.046;17.802;2023-04-03T06:19:42;6.03;;;1.40;;
74791;SDS011;63319;46.046;17.802;2023-04-03T06:22:45;2.97;;;1.20;;
74791;SDS011;63319;46.046;17.802;2023-04-03T06:25:48;6.32;;;1.40;;
74791;SDS011;63319;46.046;17.802;2023-04-03T06:28:51;3.13;;;1.10;;
74791;SDS011;63319;46.046;17.802;2023-04-03T06:31:54;8.50;;;1.40;;
74791;SDS011;63319;46.046;17.802;2023-04-03T06:34:57;2.33;;;1.30;;
74791;SDS011;63319;46.046;17.802;2023-04-03T06:38:00;3.63;;;1.48;;
74791;SDS011;63319;46.046;17.802;2023-04-03T06:41:04;3.90;;;1.67;;
74791;SDS011;63319;46.046;17.802;2023-04-03T06:44:06;3.92;;;1.40;;
74791;SDS011;63319;46.046;17.802;2023-04-03T06:47:14;3.38;;;1.60;;
74791;SDS011;63319;46.046;17.802;2023-04-03T06:50:18;6.37;;;1.70;;
74791;SDS011;63319;46.046;17.802;2023-04-03T06:53:20;5.03;;;1.33;;
74791;SDS011;63319;46.046;17.802;2023-04-03T06:56:24;3.22;;;1.50;;
74791;SDS011;63319;46.046;17.802;2023-04-03T06:59:28;3.10;;;1.30;;
74791;SDS011;63319;46.046;17.802;2023-04-03T07:02:31;3.97;;;1.23;;
74791;SDS011;63319;46.046;17.802;2023-04-03T07:05:35;3.10;;;1.60;;
74791;SDS011;63319;46.046;17.802;2023-04-03T07:08:39;3.38;;;1.50;;
74791;SDS011;63319;46.046;17.802;2023-04-03T07:11:42;3.67;;;1.35;;
74791;SDS011;63319;46.046;17.802;2023-04-03T07:14:45;2.78;;;1.50;;
74791;SDS011;63319;46.046;17.802;2023-04-03T07:17:48;3.13;;;1.27;;
74791;SDS011;63319;46.046;17.802;2023-04-03T07:20:51;2.90;;;1.30;;
74791;SDS011;63319;46.046;17.802;2023-04-03T07:23:54;3.05;;;1.30;;
74791;SDS011;63319;46.046;17.802;2023-04-03T07:26:57;2.75;;;1.23;;
74791;SDS011;63319;46.046;17.802;2023-04-03T07:30:00;2.58;;;1.17;;
74791;SDS011;63319;46.046;17.802;2023-04-03T07:33:03;3.08;;;1.10;;
74791;SDS011;63319;46.046;17.802;2023-04-03T07:36:06;3.43;;;1.40;;
74791;SDS011;63319;46.046;17.802;2023-04-03T07:39:10;2.80;;;1.27;;
74791;SDS011;63319;46.046;17.802;2023-04-03T07:42:13;5.03;;;1.48;;
74791;SDS011;63319;46.046;17.802;2023-04-03T07:45:16;4.00;;;1.48;;
74791;SDS011;63319;46.046;17.802;2023-04-03T07:48:20;3.08;;;1.30;;
74791;SDS011;63319;46.046;17.802;2023-04-03T07:51:41;4.13;;;1.63;;
74791;SDS011;63319;46.046;17.802;2023-04-03T07:54:45;3.88;;;1.40;;
74791;SDS011;63319;46.046;17.802;2023-04-03T07:57:47;4.90;;;1.58;;
74791;SDS011;63319;46.046;17.802;2023-04-03T08:00:53;2.90;;;1.40;;
74791;SDS011;63319;46.046;17.802;2023-04-03T08:03:56;4.68;;;1.70;;
74791;SDS011;63319;46.046;17.802;2023-04-03T08:06:59;4.30;;;1.30;;
74791;SDS011;63319;46.046;17.802;2023-04-03T08:10:02;2.63;;;1.30;;
74791;SDS011;63319;46.046;17.802;2023-04-03T08:13:06;2.65;;;1.38;;
74791;SDS011;63319;46.046;17.802;2023-04-03T08:16:14;3.60;;;1.50;;
74791;SDS011;63319;46.046;17.802;2023-04-03T08:19:19;6.88;;;1.92;;
74791;SDS011;63319;46.046;17.802;2023-04-03T08:22:28;3.10;;;1.40;;
74791;SDS011;63319;46.046;17.802;2023-04-03T08:25:32;2.92;;;1.38;;
74791;SDS011;63319;46.046;17.802;2023-04-03T08:28:37;4.05;;;1.90;;
74791;SDS011;63319;46.046;17.802;2023-04-03T08:31:40;5.25;;;1.70;;
74791;SDS011;63319;46.046;17.802;2023-04-03T08:34:43;5.50;;;1.45;;
74791;SDS011;63319;46.046;17.802;2023-04-03T08:37:46;3.87;;;1.43;;
74791;SDS011;63319;46.046;17.802;2023-04-03T08:41:09;4.05;;;1.52;;
74791;SDS011;63319;46.046;17.802;2023-04-03T08:48:00;3.35;;;1.60;;
74791;SDS011;63319;46.046;17.802;2023-04-03T08:51:19;4.78;;;1.55;;
74791;SDS011;63319;46.046;17.802;2023-04-03T08:54:24;4.17;;;1.60;;
74791;SDS011;63319;46.046;17.802;2023-04-03T08:57:38;4.95;;;1.65;;
74791;SDS011;63319;46.046;17.802;2023-04-03T09:03:50;4.60;;;1.50;;
74791;SDS011;63319;46.046;17.802;2023-04-03T09:06:54;4.65;;;1.52;;
74791;SDS011;63319;46.046;17.802;2023-04-03T09:10:01;3.70;;;1.60;;
74791;SDS011;63319;46.046;17.802;2023-04-03T09:16:43;9.65;;;2.08;;
74791;SDS011;63319;46.046;17.802;2023-04-03T09:19:55;8.82;;;1.90;;
74791;SDS011;63319;46.046;17.802;2023-04-03T09:23:00;9.07;;;1.73;;
74791;SDS011;63319;46.046;17.802;2023-04-03T09:26:05;7.70;;;1.93;;
74791;SDS011;63319;46.046;17.802;2023-04-03T09:29:14;5.57;;;1.80;;
74791;SDS011;63319;46.046;17.802;2023-04-03T09:32:31;8.40;;;1.75;;
74791;SDS011;63319;46.046;17.802;2023-04-03T09:35:38;7.10;;;1.60;;
74791;SDS011;63319;46.046;17.802;2023-04-03T09:39:02;4.43;;;1.70;;
74791;SDS011;63319;46.046;17.802;2023-04-03T09:45:48;4.00;;;1.38;;
74791;SDS011;63319;46.046;17.802;2023-04-03T09:48:57;5.00;;;1.85;;
74791;SDS011;63319;46.046;17.802;2023-04-03T09:52:25;11.25;;;1.60;;
74791;SDS011;63319;46.046;17.802;2023-04-03T09:55:28;8.57;;;1.80;;
74791;SDS011;63319;46.046;17.802;2023-04-03T09:58:33;4.57;;;1.53;;
74791;SDS011;63319;46.046;17.802;2023-04-03T10:02:02;6.85;;;1.70;;
74791;SDS011;63319;46.046;17.802;2023-04-03T10:05:39;5.22;;;1.95;;
74791;SDS011;63319;46.046;17.802;2023-04-03T10:08:43;13.77;;;2.00;;
74791;SDS011;63319;46.046;17.802;2023-04-03T10:12:05;5.70;;;2.10;;
74791;SDS011;63319;46.046;17.802;2023-04-03T10:15:15;7.57;;;2.17;;
74791;SDS011;63319;46.046;17.802;2023-04-03T10:21:45;5.65;;;1.77;;
74791;SDS011;63319;46.046;17.802;2023-04-03T10:28:06;10.68;;;2.53;;
74791;SDS011;63319;46.046;17.802;2023-04-03T10:34:30;4.75;;;1.75;;
74791;SDS011;63319;46.046;17.802;2023-04-03T10:48:18;12.70;;;1.93;;
74791;SDS011;63319;46.046;17.802;2023-04-03T10:51:54;8.77;;;2.17;;
74791;SDS011;63319;46.046;17.802;2023-04-03T10:58:20;10.38;;;2.13;;
74791;SDS011;63319;46.046;17.802;2023-04-03T11:01:31;9.32;;;2.60;;
74791;SDS011;63319;46.046;17.802;2023-04-03T11:04:39;7.93;;;2.20;;
74791;SDS011;63319;46.046;17.802;2023-04-03T11:07:47;7.70;;;2.28;;
74791;SDS011;63319;46.046;17.802;2023-04-03T11:10:59;7.88;;;2.40;;
74791;SDS011;63319;46.046;17.802;2023-04-03T11:17:21;9.10;;;2.17;;
74791;SDS011;63319;46.046;17.802;2023-04-03T11:20:26;5.43;;;2.00;;
74791;SDS011;63319;46.046;17.802;2023-04-03T11:23:36;9.93;;;2.65;;
74791;SDS011;63319;46.046;17.802;2023-04-03T11:26:50;7.35;;;2.42;;
74791;SDS011;63319;46.046;17.802;2023-04-03T11:29:56;11.23;;;2.30;;
74791;SDS011;63319;46.046;17.802;2023-04-03T11:36:25;9.40;;;2.07;;
74791;SDS011;63319;46.046;17.802;2023-04-03T11:39:54;8.93;;;2.20;;
74791;SDS011;63319;46.046;17.802;2023-04-03T11:43:07;5.30;;;2.10;;
74791;SDS011;63319;46.046;17.802;2023-04-03T11:46:58;7.72;;;1.90;;
74791;SDS011;63319;46.046;17.802;2023-04-03T11:50:03;8.25;;;2.38;;
74791;SDS011;63319;46.046;17.802;2023-04-03T11:59:28;7.22;;;1.83;;
74791;SDS011;63319;46.046;17.802;2023-04-03T12:02:39;4.85;;;2.00;;
74791;SDS011;63319;46.046;17.802;2023-04-03T12:05:58;5.68;;;1.98;;
74791;SDS011;63319;46.046;17.802;2023-04-03T12:12:31;5.65;;;2.03;;
74791;SDS011;63319;46.046;17.802;2023-04-03T12:15:44;4.13;;;1.77;;
74791;SDS011;63319;46.046;17.802;2023-04-03T12:25:01;6.60;;;1.70;;
74791;SDS011;63319;46.046;17.802;2023-04-03T12:28:54;8.52;;;2.03;;
74791;SDS011;63319;46.046;17.802;2023-04-03T12:35:39;4.82;;;1.80;;
74791;SDS011;63319;46.046;17.802;2023-04-03T12:49:30;9.63;;;2.58;;
74791;SDS011;63319;46.046;17.802;2023-04-03T12:52:43;15.95;;;3.10;;
74791;SDS011;63319;46.046;17.802;2023-04-03T12:55:53;6.05;;;2.63;;
74791;SDS011;63319;46.046;17.802;2023-04-03T12:59:18;9.97;;;2.70;;
74791;SDS011;63319;46.046;17.802;2023-04-03T13:02:27;9.45;;;2.70;;
74791;SDS011;63319;46.046;17.802;2023-04-03T13:05:32;10.85;;;2.90;;
74791;SDS011;63319;46.046;17.802;2023-04-03T13:08:38;7.80;;;2.58;;
74791;SDS011;63319;46.046;17.802;2023-04-03T13:11:55;9.50;;;3.08;;
74791;SDS011;63319;46.046;17.802;2023-04-03T13:15:15;9.07;;;2.47;;
74791;SDS011;63319;46.046;17.802;2023-04-03T13:18:24;9.55;;;2.20;;
74791;SDS011;63319;46.046;17.802;2023-04-03T13:21:30;10.57;;;2.75;;
74791;SDS011;63319;46.046;17.802;2023-04-03T13:24:36;8.77;;;2.42;;
74791;SDS011;63319;46.046;17.802;2023-04-03T13:27:41;7.97;;;2.80;;
74791;SDS011;63319;46.046;17.802;2023-04-03T13:31:03;7.13;;;2.43;;
74791;SDS011;63319;46.046;17.802;2023-04-03T13:34:35;7.68;;;2.55;;
74791;SDS011;63319;46.046;17.802;2023-04-03T13:37:40;10.75;;;2.88;;
74791;SDS011;63319;46.046;17.802;2023-04-03T13:40:58;9.18;;;2.70;;
74791;SDS011;63319;46.046;17.802;2023-04-03T13:47:25;7.00;;;2.13;;
74791;SDS011;63319;46.046;17.802;2023-04-03T13:54:19;7.90;;;2.50;;
74791;SDS011;63319;46.046;17.802;2023-04-03T13:57:24;9.57;;;2.20;;
74791;SDS011;63319;46.046;17.802;2023-04-03T14:00:29;7.32;;;2.08;;
74791;SDS011;63319;46.046;17.802;2023-04-03T14:06:48;7.03;;;2.40;;
74791;SDS011;63319;46.046;17.802;2023-04-03T14:09:52;8.57;;;2.22;;
74791;SDS011;63319;46.046;17.802;2023-04-03T14:12:55;6.65;;;2.55;;
74791;SDS011;63319;46.046;17.802;2023-04-03T14:15:59;8.88;;;2.50;;
74791;SDS011;63319;46.046;17.802;2023-04-03T14:19:19;6.03;;;2.77;;
74791;SDS011;63319;46.046;17.802;2023-04-03T14:22:29;6.43;;;2.17;;
74791;SDS011;63319;46.046;17.802;2023-04-03T14:25:34;7.90;;;2.35;;
74791;SDS011;63319;46.046;17.802;2023-04-03T14:28:38;7.07;;;2.15;;
74791;SDS011;63319;46.046;17.802;2023-04-03T14:31:45;7.53;;;2.28;;
74791;SDS011;63319;46.046;17.802;2023-04-03T14:34:50;7.90;;;2.50;;
74791;SDS011;63319;46.046;17.802;2023-04-03T14:37:54;8.70;;;2.20;;
74791;SDS011;63319;46.046;17.802;2023-04-03T14:40:57;7.30;;;2.38;;
74791;SDS011;63319;46.046;17.802;2023-04-03T14:44:17;8.00;;;2.47;;
74791;SDS011;63319;46.046;17.802;2023-04-03T14:47:21;9.52;;;2.38;;
74791;SDS011;63319;46.046;17.802;2023-04-03T14:50:33;8.83;;;2.00;;
74791;SDS011;63319;46.046;17.802;2023-04-03T14:53:36;8.18;;;1.95;;
74791;SDS011;63319;46.046;17.802;2023-04-03T14:56:40;6.13;;;2.20;;
74791;SDS011;63319;46.046;17.802;2023-04-03T14:59:44;5.53;;;2.30;;
74791;SDS011;63319;46.046;17.802;2023-04-03T15:02:47;7.40;;;2.40;;
74791;SDS011;63319;46.046;17.802;2023-04-03T15:05:51;7.13;;;1.90;;
74791;SDS011;63319;46.046;17.802;2023-04-03T15:08:53;5.07;;;2.05;;
74791;SDS011;63319;46.046;17.802;2023-04-03T15:11:56;5.55;;;2.22;;
74791;SDS011;63319;46.046;17.802;2023-04-03T15:14:59;6.15;;;2.30;;
74791;SDS011;63319;46.046;17.802;2023-04-03T15:18:05;7.85;;;2.38;;
74791;SDS011;63319;46.046;17.802;2023-04-03T15:21:08;6.37;;;2.10;;
74791;SDS011;63319;46.046;17.802;2023-04-03T15:24:12;5.75;;;2.13;;
74791;SDS011;63319;46.046;17.802;2023-04-03T15:27:14;6.32;;;2.53;;
74791;SDS011;63319;46.046;17.802;2023-04-03T15:30:18;6.60;;;2.50;;
74791;SDS011;63319;46.046;17.802;2023-04-03T15:33:22;9.05;;;2.25;;
74791;SDS011;63319;46.046;17.802;2023-04-03T15:36:25;8.40;;;2.30;;
74791;SDS011;63319;46.046;17.802;2023-04-03T15:39:35;4.93;;;2.00;;
74791;SDS011;63319;46.046;17.802;2023-04-03T15:42:38;5.47;;;2.13;;
74791;SDS011;63319;46.046;17.802;2023-04-03T15:45:42;7.88;;;2.50;;
74791;SDS011;63319;46.046;17.802;2023-04-03T15:48:45;9.05;;;2.03;;
74791;SDS011;63319;46.046;17.802;2023-04-03T15:51:48;10.57;;;2.30;;
74791;SDS011;63319;46.046;17.802;2023-04-03T15:54:51;4.05;;;2.00;;
74791;SDS011;63319;46.046;17.802;2023-04-03T15:57:54;9.90;;;2.10;;
74791;SDS011;63319;46.046;17.802;2023-04-03T16:00:59;5.55;;;2.17;;
74791;SDS011;63319;46.046;17.802;2023-04-03T16:04:03;4.57;;;1.98;;
74791;SDS011;63319;46.046;17.802;2023-04-03T16:07:07;6.33;;;2.03;;
74791;SDS011;63319;46.046;17.802;2023-04-03T16:10:10;7.22;;;2.67;;
74791;SDS011;63319;46.046;17.802;2023-04-03T16:13:14;6.47;;;2.33;;
74791;SDS011;63319;46.046;17.802;2023-04-03T16:16:17;8.80;;;1.83;;
74791;SDS011;63319;46.046;17.802;2023-04-03T16:19:20;8.57;;;2.45;;
74791;SDS011;63319;46.046;17.802;2023-04-03T16:22:27;7.87;;;2.13;;
74791;SDS011;63319;46.046;17.802;2023-04-03T16:25:31;6.28;;;2.47;;
74791;SDS011;63319;46.046;17.802;2023-04-03T16:28:35;4.95;;;2.08;;
74791;SDS011;63319;46.046;17.802;2023-04-03T16:31:38;5.68;;;2.30;;
74791;SDS011;63319;46.046;17.802;2023-04-03T16:34:41;6.63;;;2.10;;
74791;SDS011;63319;46.046;17.802;2023-04-03T16:37:44;6.30;;;1.90;;
74791;SDS011;63319;46.046;17.802;2023-04-03T16:40:46;5.72;;;2.40;;
74791;SDS011;63319;46.046;17.802;2023-04-03T16:43:50;5.75;;;2.33;;
74791;SDS011;63319;46.046;17.802;2023-04-03T16:46:53;5.28;;;1.95;;
74791;SDS011;63319;46.046;17.802;2023-04-03T16:49:57;5.35;;;2.10;;
74791;SDS011;63319;46.046;17.802;2023-04-03T16:53:01;4.10;;;1.93;;
74791;SDS011;63319;46.046;17.802;2023-04-03T16:56:05;6.20;;;2.33;;
74791;SDS011;63319;46.046;17.802;2023-04-03T16:59:08;7.55;;;2.30;;
74791;SDS011;63319;46.046;17.802;2023-04-03T17:02:11;5.47;;;1.95;;
74791;SDS011;63319;46.046;17.802;2023-04-03T17:05:14;6.25;;;2.47;;
74791;SDS011;63319;46.046;17.802;2023-04-03T17:08:17;6.07;;;2.57;;
74791;SDS011;63319;46.046;17.802;2023-04-03T17:11:20;4.93;;;2.25;;
74791;SDS011;63319;46.046;17.802;2023-04-03T17:14:23;4.47;;;1.83;;
74791;SDS011;63319;46.046;17.802;2023-04-03T17:17:26;8.70;;;1.98;;
74791;SDS011;63319;46.046;17.802;2023-04-03T17:20:29;7.10;;;2.30;;
74791;SDS011;63319;46.046;17.802;2023-04-03T17:23:34;6.10;;;2.30;;
74791;SDS011;63319;46.046;17.802;2023-04-03T17:26:40;3.70;;;1.70;;
74791;SDS011;63319;46.046;17.802;2023-04-03T17:29:44;4.15;;;2.08;;
74791;SDS011;63319;46.046;17.802;2023-04-03T17:32:47;5.35;;;2.10;;
74791;SDS011;63319;46.046;17.802;2023-04-03T17:35:51;5.35;;;2.17;;
74791;SDS011;63319;46.046;17.802;2023-04-03T17:38:54;3.93;;;2.00;;
74791;SDS011;63319;46.046;17.802;2023-04-03T17:41:59;4.25;;;1.95;;
74791;SDS011;63319;46.046;17.802;2023-04-03T17:45:02;5.47;;;2.15;;
74791;SDS011;63319;46.046;17.802;2023-04-03T17:48:08;5.18;;;2.15;;
74791;SDS011;63319;46.046;17.802;2023-04-03T17:51:12;7.30;;;2.15;;
74791;SDS011;63319;46.046;17.802;2023-04-03T17:54:17;7.60;;;2.17;;
74791;SDS011;63319;46.046;17.802;2023-04-03T17:57:20;4.13;;;1.88;;
74791;SDS011;63319;46.046;17.802;2023-04-03T18:00:24;4.15;;;2.00;;
74791;SDS011;63319;46.046;17.802;2023-04-03T18:03:27;6.00;;;1.98;;
74791;SDS011;63319;46.046;17.802;2023-04-03T18:06:31;5.05;;;2.10;;
74791;SDS011;63319;46.046;17.802;2023-04-03T18:09:38;4.27;;;1.73;;
74791;SDS011;63319;46.046;17.802;2023-04-03T18:12:44;4.90;;;2.20;;
74791;SDS011;63319;46.046;17.802;2023-04-03T18:15:49;4.50;;;2.15;;
74791;SDS011;63319;46.046;17.802;2023-04-03T18:18:53;5.07;;;2.20;;
74791;SDS011;63319;46.046;17.802;2023-04-03T18:22:16;3.60;;;1.73;;
74791;SDS011;63319;46.046;17.802;2023-04-03T18:25:22;3.97;;;2.00;;
74791;SDS011;63319;46.046;17.802;2023-04-03T18:28:27;9.40;;;2.15;;
74791;SDS011;63319;46.046;17.802;2023-04-03T18:31:36;6.18;;;2.20;;
74791;SDS011;63319;46.046;17.802;2023-04-03T18:34:42;6.30;;;2.22;;
74791;SDS011;63319;46.046;17.802;2023-04-03T18:37:48;4.05;;;1.67;;
74791;SDS011;63319;46.046;17.802;2023-04-03T18:40:51;5.10;;;1.93;;
74791;SDS011;63319;46.046;17.802;2023-04-03T18:43:59;5.13;;;2.08;;
74791;SDS011;63319;46.046;17.802;2023-04-03T18:47:06;5.22;;;2.35;;
74791;SDS011;63319;46.046;17.802;2023-04-03T18:50:14;6.70;;;2.13;;
74791;SDS011;63319;46.046;17.802;2023-04-03T18:53:20;5.28;;;2.10;;
74791;SDS011;63319;46.046;17.802;2023-04-03T18:56:26;4.17;;;1.90;;
74791;SDS011;63319;46.046;17.802;2023-04-03T18:59:30;4.72;;;2.03;;
74791;SDS011;63319;46.046;17.802;2023-04-03T19:02:36;4.63;;;2.00;;
74791;SDS011;63319;46.046;17.802;2023-04-03T19:05:41;3.90;;;1.80;;
74791;SDS011;63319;46.046;17.802;2023-04-03T19:08:45;5.88;;;2.10;;
74791;SDS011;63319;46.046;17.802;2023-04-03T19:11:51;5.53;;;2.13;;
74791;SDS011;63319;46.046;17.802;2023-04-03T19:14:55;4.03;;;1.88;;
74791;SDS011;63319;46.046;17.802;2023-04-03T19:17:58;4.25;;;1.85;;
74791;SDS011;63319;46.046;17.802;2023-04-03T19:21:04;4.93;;;2.05;;
74791;SDS011;63319;46.046;17.802;2023-04-03T19:24:09;4.85;;;1.90;;
74791;SDS011;63319;46.046;17.802;2023-04-03T19:27:15;5.90;;;2.00;;
74791;SDS011;63319;46.046;17.802;2023-04-03T19:30:20;4.65;;;2.05;;
74791;SDS011;63319;46.046;17.802;2023-04-03T19:33:33;6.53;;;2.17;;
74791;SDS011;63319;46.046;17.802;2023-04-03T19:36:37;5.45;;;2.40;;
74791;SDS011;63319;46.046;17.802;2023-04-03T19:39:41;3.80;;;1.77;;
74791;SDS011;63319;46.046;17.802;2023-04-03T19:42:44;5.33;;;2.20;;
74791;SDS011;63319;46.046;17.802;2023-04-03T19:45:48;5.38;;;2.05;;
74791;SDS011;63319;46.046;17.802;2023-04-03T19:48:52;3.95;;;1.90;;
74791;SDS011;63319;46.046;17.802;2023-04-03T19:51:56;5.22;;;1.83;;